LiveATC.Net - Listen to live air traffic control over the Internet!


ICAO: KBIS  IATA: BIS   Airport: Bismarck Municipal Airport
City: Bismarck   State/Province: North Dakota
Country: United States   Continent: North America
KBIS METAR Weather: KBIS 161317Z 34012G22KT 10SM BKN018 13/08 A2993 RMK AO2 T01280078
KBIS Flight Activity (FlightAware)
KBIS Airport Info   (iFlightPlanner)
KBIS VFR Sectional Chart   (iFlightPlanner) 
KBIS IFR Low Chart   (iFlightPlanner) 

KBIS Twr/App
Feed Status: UP   Listeners: 0
Listen in your browser - HTML5 player (in browser, HTML5)
Click here to listen with your own player (launches your MP3 player)
KBIS Twr/App Audio Archives
FacilityFrequency
Bismarck Approach/Departure126.300
Bismarck Tower118.300

NOTICE

Unauthorized use prohibited. See LiveATC.net Terms of Service


Find LiveATC Audio Streams


Airport/ARTCC Code

Frequency Search
(e.g., 124.400, 128.75)
Site-wide search
 


Browse LiveATC Feeds
Top 50 LiveATC Feeds
LiveATC Feed Map
Bad Weather Areas

LiveATC FAQ
Offer LiveATC feed
Contact LiveATC.net
Press Inquiries

LiveATC on iPhone
LiveATC on Android

Windows Phone
Windows 8/10

LiveATC Mobile
(Mobile browser)

ATC Audio Archives
Interesting Recordings

LiveATC Forums


Home Page
About LiveATC.net
Make a Donation
Terms of Use
Privacy Policy

Canadian Air Freqs

AIRMETs/SIGMETs

FAA Airport Status
Nat'l Airspace Status
Arrival Demand Charts


Server Software By:
Icecast.org
Liquidsoap